Huvudsida
METAR-TAF:

METAR-TAF

Flygplatser :

Esbjergs flygplats

Esbjerg, Danmark

latitud: 55-32N, longitud: 008-34E, höjd: 30 m

Aktuellt väderrapport

Denna rapport gjordes för 14 minuter sedan, klockan 00:50 UTC
Vind 3 kt från nord/nordväst
Temperatur 1°C
Fuktighet 93%
Tryck 1013 hPa
Sikt 10 km eller mer

METAR: EKEB 200050Z AUTO 33003KT 9999 BKN120/// 01/M00 Q1013

Tid: 03:04 (01:04 UTC)

Väderprognos

Denna rapport gjordes för 7 timmar och 41 minuter sedan, klockan 17:23 UTC
Prognos gäller från 19 kl. 18 UTC till 19 kl. 22 UTC
Vind 8 kt från nord
Sikt 10 km eller mer
Spridda moln på en höjd av 3000 ft

TAF: EKEB 191723Z 1918/1922 35008KT 9999 SCT030

Aktuella väderrapporter och prognoser från 4000 flygplatser (METAR- och TAF-rapporter).

De tillgängliga stationerna syns som gula och röda prickar på kartan.

För musen över prickarna för att se namnen på stationerna.

Klicka sedan för att få väderrapporter och prognoser.

För att ändra kartan: Klicka på de gröna knapparna med ett svart kors på för att zooma in; den gröna knappen med ett streck på för att zooma ut; eller på de gröna pilarna för angränsande kartor.


METAR-TAF: